Wetterdaten: aktuell Dienstag, 20.10.2020 15:05
Datum Zeit Temp. A. Temp. A. min Feuchte A. Luftdruck Regen Wind Richtung Richtung Sonnenschein Solar Taupunkt Windchill Windben
20.10.2020 15:05 15,4 C 15,4 C 70 % 1013,3 hPa 0,0 l/m 0,0 km/h (0 Bft) O 84 0 min 0 W/m 10,0 C 15,4 C 0,0 km/h (0 Bft)
20.10.2020 15:00 15,4 C 15,3 C 70 % 1013,3 hPa 0,0 l/m 0,0 km/h (0 Bft) O-SO 115 0 min 0 W/m 10,0 C 15,4 C 3,2 km/h (1 Bft)
20.10.2020 14:55 15,3 C 15,3 C 70 % 1013,3 hPa 0,0 l/m 1,2 km/h (1 Bft) O-SO 109 0 min 0 W/m 9,9 C 15,3 C 8,0 km/h (2 Bft)
20.10.2020 14:50 15,3 C 15,2 C 70 % 1013,5 hPa 0,0 l/m 1,9 km/h (1 Bft) O 99 0 min 0 W/m 9,9 C 15,3 C 4,8 km/h (1 Bft)
20.10.2020 14:45 15,2 C 15,2 C 70 % 1013,6 hPa 0,0 l/m 0,7 km/h (0 Bft) SO 146 0 min 0 W/m 9,8 C 15,2 C 1,6 km/h (1 Bft)
20.10.2020 14:40 15,2 C 15,1 C 71 % 1013,7 hPa 0,0 l/m 0,6 km/h (0 Bft) S-SO 149 0 min 0 W/m 10,0 C 15,2 C 4,8 km/h (1 Bft)
20.10.2020 14:35 15,1 C 15,1 C 69 % 1013,7 hPa 0,0 l/m 0,2 km/h (0 Bft) O-SO 117 0 min 0 W/m 9,5 C 15,1 C 4,8 km/h (1 Bft)
20.10.2020 14:30 15,1 C 15,0 C 72 % 1013,9 hPa 0,0 l/m 0,0 km/h (0 Bft) O-SO 109 0 min 0 W/m 10,1 C 15,1 C 0,0 km/h (0 Bft)
20.10.2020 14:25 15,0 C 15,0 C 70 % 1013,8 hPa 0,0 l/m 0,1 km/h (0 Bft) O-SO 106 0 min 0 W/m 9,6 C 15,0 C 3,2 km/h (1 Bft)
20.10.2020 14:20 15,0 C 15,0 C 69 % 1013,9 hPa 0,0 l/m 0,0 km/h (0 Bft) O-SO 109 0 min 0 W/m 9,4 C 15,0 C 0,0 km/h (0 Bft)
20.10.2020 14:15 15,0 C 14,9 C 68 % 1014,0 hPa 0,0 l/m 1,5 km/h (1 Bft) S 172 0 min 0 W/m 9,1 C 15,0 C 6,4 km/h (2 Bft)
20.10.2020 14:10 15,0 C 15,0 C 68 % 1013,8 hPa 0,0 l/m 0,0 km/h (0 Bft) SO 145 0 min 0 W/m 9,1 C 15,0 C 0,0 km/h (0 Bft)
20.10.2020 14:05 15,1 C 15,0 C 69 % 1013,8 hPa 0,0 l/m 1,1 km/h (1 Bft) N 11 0 min 0 W/m 9,5 C 15,1 C 6,4 km/h (2 Bft)
20.10.2020 14:00 15,0 C 15,0 C 68 % 1013,9 hPa 0,0 l/m 1,2 km/h (1 Bft) O 96 0 min 0 W/m 9,1 C 15,0 C 4,8 km/h (1 Bft)
20.10.2020 13:55 15,0 C 14,9 C 68 % 1014,1 hPa 0,0 l/m 1,9 km/h (1 Bft) O-SO 112 0 min 0 W/m 9,1 C 15,0 C 6,4 km/h (2 Bft)
20.10.2020 13:50 14,9 C 14,9 C 68 % 1014,2 hPa 0,0 l/m 3,0 km/h (1 Bft) O 92 0 min 0 W/m 9,0 C 14,9 C 11,3 km/h (2 Bft)
20.10.2020 13:45 14,9 C 14,8 C 68 % 1014,4 hPa 0,0 l/m 2,8 km/h (1 Bft) SO 137 0 min 0 W/m 9,0 C 14,9 C 8,0 km/h (2 Bft)
20.10.2020 13:40 14,8 C 14,7 C 69 % 1014,5 hPa 0,0 l/m 2,2 km/h (1 Bft) S-SO 160 0 min 0 W/m 9,2 C 14,8 C 6,4 km/h (2 Bft)
20.10.2020 13:35 14,7 C 14,7 C 69 % 1014,6 hPa 0,0 l/m 1,3 km/h (1 Bft) S-SO 166 0 min 0 W/m 9,1 C 14,7 C 3,2 km/h (1 Bft)
20.10.2020 13:30 14,7 C 14,6 C 69 % 1014,7 hPa 0,0 l/m 1,9 km/h (1 Bft) O-SO 106 0 min 0 W/m 9,1 C 14,7 C 9,7 km/h (2 Bft)
20.10.2020 13:25 14,6 C 14,5 C 69 % 1014,8 hPa 0,0 l/m 3,0 km/h (1 Bft) S-SO 165 0 min 0 W/m 9,0 C 14,6 C 9,7 km/h (2 Bft)
20.10.2020 13:20 14,5 C 14,4 C 69 % 1014,9 hPa 0,0 l/m 0,8 km/h (0 Bft) S-SO 160 0 min 0 W/m 8,9 C 14,5 C 8,0 km/h (2 Bft)
20.10.2020 13:15 14,4 C 14,3 C 70 % 1014,9 hPa 0,0 l/m 0,0 km/h (0 Bft) SO 142 0 min 0 W/m 9,0 C 14,4 C 0,0 km/h (0 Bft)
20.10.2020 13:10 14,3 C 14,0 C 69 % 1014,9 hPa 0,0 l/m 1,9 km/h (1 Bft) S-SO 158 0 min 0 W/m 8,7 C 14,3 C 8,0 km/h (2 Bft)
20.10.2020 13:05 14,0 C 13,7 C 69 % 1015,0 hPa 0,0 l/m 3,8 km/h (1 Bft) S-SO 155 0 min 0 W/m 8,4 C 14,0 C 11,3 km/h (2 Bft)
20.10.2020 13:00 13,7 C 13,6 C 71 % 1015,1 hPa 0,0 l/m 1,3 km/h (1 Bft) S 188 0 min 0 W/m 8,5 C 13,7 C 4,8 km/h (1 Bft)
20.10.2020 12:55 13,6 C 13,4 C 70 % 1015,1 hPa 0,0 l/m 0,0 km/h (0 Bft) O-SO 103 0 min 0 W/m 8,2 C 13,6 C 0,0 km/h (0 Bft)
20.10.2020 12:50 13,4 C 13,3 C 71 % 1015,2 hPa 0,0 l/m 0,7 km/h (0 Bft) S-SW 196 0 min 0 W/m 8,3 C 13,4 C 6,4 km/h (2 Bft)
20.10.2020 12:45 13,3 C 13,1 C 72 % 1015,1 hPa 0,0 l/m 0,0 km/h (0 Bft) SO 134 0 min 0 W/m 8,4 C 13,3 C 1,6 km/h (1 Bft)
20.10.2020 12:40 13,1 C 12,8 C 72 % 1015,3 hPa 0,0 l/m 0,3 km/h (0 Bft) S 184 0 min 0 W/m 8,2 C 13,1 C 4,8 km/h (1 Bft)
20.10.2020 12:35 12,8 C 12,6 C 74 % 1015,2 hPa 0,0 l/m 0,1 km/h (0 Bft) SO 143 0 min 0 W/m 8,3 C 12,8 C 1,6 km/h (1 Bft)
20.10.2020 12:30 12,6 C 12,2 C 74 % 1015,1 hPa 0,0 l/m 1,3 km/h (1 Bft) SO 141 0 min 0 W/m 8,1 C 12,6 C 11,3 km/h (2 Bft)
20.10.2020 12:25 12,2 C 11,8 C 76 % 1015,1 hPa 0,0 l/m 2,6 km/h (1 Bft) SO 139 0 min 0 W/m 8,1 C 12,2 C 11,3 km/h (2 Bft)
20.10.2020 12:20 11,8 C 11,2 C 77 % 1015,1 hPa 0,0 l/m 1,5 km/h (1 Bft) SO 138 0 min 0 W/m 7,9 C 11,8 C 12,9 km/h (3 Bft)
20.10.2020 12:15 11,2 C 10,6 C 79 % 1015,1 hPa 0,0 l/m 0,0 km/h (0 Bft) S-SO 161 0 min 0 W/m 7,7 C 11,2 C 1,6 km/h (1 Bft)
20.10.2020 12:10 10,6 C 10,1 C 82 % 1015,2 hPa 0,0 l/m 0,0 km/h (0 Bft) O 88 0 min 0 W/m 7,7 C 10,6 C 0,0 km/h (0 Bft)
20.10.2020 12:05 10,1 C 9,6 C 85 % 1015,2 hPa 0,0 l/m 0,0 km/h (0 Bft) S-SO 148 0 min 0 W/m 7,7 C 10,1 C 1,6 km/h (1 Bft)
20.10.2020 12:00 9,6 C 9,2 C 87 % 1015,3 hPa 0,0 l/m 0,0 km/h (0 Bft) S-SO 163 0 min 0 W/m 7,5 C 9,6 C 0,0 km/h (0 Bft)
20.10.2020 11:55 9,2 C 8,9 C 89 % 1015,3 hPa 0,0 l/m 0,0 km/h (0 Bft) S-SO 165 0 min 0 W/m 7,5 C 9,2 C 0,0 km/h (0 Bft)
20.10.2020 11:50 8,9 C 8,7 C 89 % 1015,4 hPa 0,0 l/m 0,0 km/h (0 Bft) S-SW 201 0 min 0 W/m 7,2 C 8,9 C 0,0 km/h (0 Bft)
20.10.2020 11:45 8,7 C 8,5 C 90 % 1015,4 hPa 0,0 l/m 0,0 km/h (0 Bft) S-SW 201 0 min 0 W/m 7,2 C 8,7 C 0,0 km/h (0 Bft)
20.10.2020 11:40 8,5 C 8,3 C 90 % 1015,4 hPa 0,0 l/m 0,0 km/h (0 Bft) S-SW 192 0 min 0 W/m 7,0 C 8,5 C 0,0 km/h (0 Bft)
20.10.2020 11:35 8,3 C 8,2 C 90 % 1015,3 hPa 0,0 l/m 0,0 km/h (0 Bft) S-SW 192 0 min 0 W/m 6,8 C 8,3 C 0,0 km/h (0 Bft)
20.10.2020 11:30 8,2 C 7,9 C 90 % 1015,4 hPa 0,0 l/m 0,0 km/h (0 Bft) S 182 0 min 0 W/m 6,7 C 8,2 C 0,0 km/h (0 Bft)
20.10.2020 11:25 7,9 C 7,8 C 90 % 1015,3 hPa 0,0 l/m 0,5 km/h (0 Bft) S 173 0 min 0 W/m 6,4 C 7,9 C 3,2 km/h (1 Bft)
20.10.2020 11:20 7,8 C 7,7 C 90 % 1015,5 hPa 0,0 l/m 1,0 km/h (0 Bft) S-SW 198 0 min 0 W/m 6,3 C 7,8 C 4,8 km/h (1 Bft)
20.10.2020 11:15 7,7 C 7,6 C 90 % 1015,5 hPa 0,0 l/m 0,4 km/h (0 Bft) S-SW 199 0 min 0 W/m 6,2 C 7,7 C 3,2 km/h (1 Bft)
20.10.2020 11:10 7,6 C 7,4 C 90 % 1015,3 hPa 0,0 l/m 0,4 km/h (0 Bft) S-SW 199 0 min 0 W/m 6,1 C 7,6 C 3,2 km/h (1 Bft)
20.10.2020 11:05 7,4 C 7,3 C 90 % 1015,4 hPa 0,0 l/m 0,0 km/h (0 Bft) SW 215 0 min 0 W/m 5,9 C 7,4 C 0,0 km/h (0 Bft)
20.10.2020 11:00 7,3 C 7,3 C 91 % 1015,4 hPa 0,0 l/m 0,0 km/h (0 Bft) S 190 0 min 0 W/m 5,9 C 7,3 C 0,0 km/h (0 Bft)
20.10.2020 10:55 7,3 C 7,2 C 91 % 1015,5 hPa 0,0 l/m 0,2 km/h (0 Bft) S-SW 194 0 min 0 W/m 5,9 C 7,3 C 1,6 km/h (1 Bft)
20.10.2020 10:50 7,2 C 7,1 C 91 % 1015,5 hPa 0,0 l/m 0,5 km/h (0 Bft) S 188 0 min 0 W/m 5,8 C 7,2 C 4,8 km/h (1 Bft)
20.10.2020 10:45 7,1 C 6,9 C 91 % 1015,5 hPa 0,0 l/m 0,9 km/h (0 Bft) S-SW 211 0 min 0 W/m 5,7 C 7,1 C 6,4 km/h (2 Bft)
20.10.2020 10:40 6,9 C 6,8 C 92 % 1015,6 hPa 0,0 l/m 0,0 km/h (0 Bft) S-SW 198 0 min 0 W/m 5,7 C 6,9 C 1,6 km/h (1 Bft)
20.10.2020 10:35 6,8 C 6,7 C 92 % 1015,7 hPa 0,0 l/m 0,0 km/h (0 Bft) S-SW 198 0 min 0 W/m 5,6 C 6,8 C 1,6 km/h (1 Bft)
20.10.2020 10:30 6,7 C 6,6 C 92 % 1015,7 hPa 0,0 l/m 0,0 km/h (0 Bft) SW 215 0 min 0 W/m 5,5 C 6,7 C 0,0 km/h (0 Bft)
20.10.2020 10:25 6,6 C 6,4 C 92 % 1015,6 hPa 0,0 l/m 0,0 km/h (0 Bft) S-SW 203 0 min 0 W/m 5,4 C 6,6 C 0,0 km/h (0 Bft)
20.10.2020 10:20 6,4 C 6,3 C 93 % 1015,6 hPa 0,0 l/m 0,2 km/h (0 Bft) S 186 0 min 0 W/m 5,4 C 6,4 C 4,8 km/h (1 Bft)
20.10.2020 10:15 6,3 C 6,2 C 93 % 1015,7 hPa 0,0 l/m 1,3 km/h (1 Bft) S-SW 203 0 min 0 W/m 5,3 C 6,3 C 4,8 km/h (1 Bft)
20.10.2020 10:10 6,2 C 6,1 C 93 % 1015,8 hPa 0,0 l/m 2,3 km/h (1 Bft) S-SW 211 0 min 0 W/m 5,2 C 6,2 C 8,0 km/h (2 Bft)
20.10.2020 10:05 6,1 C 6,1 C 93 % 1015,8 hPa 0,0 l/m 0,5 km/h (0 Bft) S 188 0 min 0 W/m 5,1 C 6,1 C 8,0 km/h (2 Bft)
20.10.2020 10:00 6,1 C 5,9 C 93 % 1015,7 hPa 0,0 l/m 1,2 km/h (1 Bft) S-SW 207 0 min 0 W/m 5,1 C 6,1 C 8,0 km/h (2 Bft)
20.10.2020 09:55 5,9 C 5,7 C 94 % 1015,6 hPa 0,0 l/m 1,4 km/h (1 Bft) S 176 0 min 0 W/m 5,0 C 5,9 C 4,8 km/h (1 Bft)
20.10.2020 09:50 5,7 C 5,4 C 94 % 1015,7 hPa 0,0 l/m 2,3 km/h (1 Bft) S 186 0 min 0 W/m 4,8 C 5,7 C 9,7 km/h (2 Bft)
20.10.2020 09:45 5,4 C 5,2 C 93 % 1015,7 hPa 0,0 l/m 0,9 km/h (0 Bft) S-SW 199 0 min 0 W/m 4,4 C 5,4 C 3,2 km/h (1 Bft)
20.10.2020 09:40 5,2 C 5,0 C 93 % 1015,5 hPa 0,0 l/m 0,9 km/h (0 Bft) S 175 0 min 0 W/m 4,2 C 5,2 C 3,2 km/h (1 Bft)
20.10.2020 09:35 5,0 C 4,8 C 93 % 1015,7 hPa 0,0 l/m 0,1 km/h (0 Bft) S 174 0 min 0 W/m 4,0 C 5,0 C 1,6 km/h (1 Bft)
20.10.2020 09:30 4,8 C 4,8 C 93 % 1015,7 hPa 0,0 l/m 0,3 km/h (0 Bft) S 173 0 min 0 W/m 3,8 C 4,8 C 1,6 km/h (1 Bft)
20.10.2020 09:25 4,8 C 4,6 C 93 % 1015,6 hPa 0,0 l/m 0,1 km/h (0 Bft) S 171 0 min 0 W/m 3,8 C 4,8 C 1,6 km/h (1 Bft)
20.10.2020 09:20 4,6 C 4,4 C 93 % 1015,6 hPa 0,0 l/m 0,3 km/h (0 Bft) S 171 0 min 0 W/m 3,6 C 4,6 C 3,2 km/h (1 Bft)
20.10.2020 09:15 4,4 C 4,3 C 93 % 1015,6 hPa 0,0 l/m 0,2 km/h (0 Bft) S 169 0 min 0 W/m 3,4 C 4,4 C 1,6 km/h (1 Bft)
20.10.2020 09:10 4,3 C 4,1 C 93 % 1015,6 hPa 0,0 l/m 0,2 km/h (0 Bft) S-SW 194 0 min 0 W/m 3,3 C 4,3 C 1,6 km/h (1 Bft)
20.10.2020 09:05 4,1 C 3,9 C 93 % 1015,5 hPa 0,0 l/m 0,0 km/h (0 Bft) S-SW 209 0 min 0 W/m 3,1 C 4,1 C 0,0 km/h (0 Bft)
20.10.2020 09:00 3,9 C 3,8 C 93 % 1015,4 hPa 0,0 l/m 0,0 km/h (0 Bft) S-SW 209 0 min 0 W/m 2,9 C 3,9 C 0,0 km/h (0 Bft)
20.10.2020 08:55 3,8 C 3,7 C 93 % 1015,4 hPa 0,0 l/m 0,0 km/h (0 Bft) S-SW 209 0 min 0 W/m 2,8 C 3,8 C 0,0 km/h (0 Bft)
20.10.2020 08:50 3,7 C 3,5 C 93 % 1015,5 hPa 0,0 l/m 0,0 km/h (0 Bft) S-SW 209 0 min 0 W/m 2,7 C 3,7 C 0,0 km/h (0 Bft)
20.10.2020 08:45 3,5 C 3,3 C 92 % 1015,6 hPa 0,0 l/m 0,0 km/h (0 Bft) S-SW 199 0 min 0 W/m 2,3 C 3,5 C 0,0 km/h (0 Bft)
20.10.2020 08:40 3,3 C 3,2 C 92 % 1015,4 hPa 0,0 l/m 0,0 km/h (0 Bft) SW 227 0 min 0 W/m 2,1 C 3,3 C 0,0 km/h (0 Bft)
20.10.2020 08:35 3,2 C 3,2 C 92 % 1015,3 hPa 0,0 l/m 0,0 km/h (0 Bft) W 263 0 min 0 W/m 2,0 C 3,2 C 0,0 km/h (0 Bft)
20.10.2020 08:30 3,2 C 3,1 C 92 % 1015,2 hPa 0,0 l/m 0,0 km/h (0 Bft) W 263 0 min 0 W/m 2,0 C 3,2 C 0,0 km/h (0 Bft)
20.10.2020 08:25 3,1 C 3,1 C 92 % 1015,1 hPa 0,0 l/m 0,0 km/h (0 Bft) S 189 0 min 0 W/m 1,9 C 3,1 C 0,0 km/h (0 Bft)
20.10.2020 08:20 3,1 C 3,1 C 92 % 1015,2 hPa 0,0 l/m 0,0 km/h (0 Bft) S 189 0 min 0 W/m 1,9 C 3,1 C 0,0 km/h (0 Bft)
20.10.2020 08:15 3,1 C 3,1 C 92 % 1015,3 hPa 0,0 l/m 0,0 km/h (0 Bft) S 189 0 min 0 W/m 1,9 C 3,1 C 0,0 km/h (0 Bft)
20.10.2020 08:10 3,1 C 3,1 C 91 % 1015,6 hPa 0,0 l/m 0,0 km/h (0 Bft) S 189 0 min 0 W/m 1,8 C 3,1 C 0,0 km/h (0 Bft)
20.10.2020 08:05 3,1 C 3,1 C 91 % 1015,5 hPa 0,0 l/m 0,0 km/h (0 Bft) S 189 0 min 0 W/m 1,8 C 3,1 C 0,0 km/h (0 Bft)
20.10.2020 08:00 3,1 C 3,1 C 91 % 1015,5 hPa 0,0 l/m 0,0 km/h (0 Bft) S 189 0 min 0 W/m 1,8 C 3,1 C 0,0 km/h (0 Bft)
20.10.2020 07:55 3,2 C 3,2 C 91 % 1015,5 hPa 0,0 l/m 0,0 km/h (0 Bft) S 189 0 min 0 W/m 1,9 C 3,2 C 0,0 km/h (0 Bft)
20.10.2020 07:50 3,2 C 3,2 C 91 % 1015,3 hPa 0,0 l/m 0,0 km/h (0 Bft) S 189 0 min 0 W/m 1,9 C 3,2 C 0,0 km/h (0 Bft)
20.10.2020 07:45 3,3 C 3,2 C 91 % 1015,4 hPa 0,0 l/m 0,0 km/h (0 Bft) S 190 0 min 0 W/m 2,0 C 3,3 C 0,0 km/h (0 Bft)
20.10.2020 07:40 3,3 C 3,3 C 91 % 1015,5 hPa 0,0 l/m 0,0 km/h (0 Bft) S 189 0 min 0 W/m 2,0 C 3,3 C 0,0 km/h (0 Bft)
20.10.2020 07:35 3,3 C 3,3 C 91 % 1015,6 hPa 0,0 l/m 0,0 km/h (0 Bft) S 190 0 min 0 W/m 2,0 C 3,3 C 0,0 km/h (0 Bft)
20.10.2020 07:30 3,4 C 3,4 C 91 % 1015,6 hPa 0,0 l/m 0,0 km/h (0 Bft) S 189 0 min 0 W/m 2,1 C 3,4 C 0,0 km/h (0 Bft)
20.10.2020 07:25 3,4 C 3,4 C 91 % 1015,8 hPa 0,0 l/m 0,0 km/h (0 Bft) S 190 0 min 0 W/m 2,1 C 3,4 C 0,0 km/h (0 Bft)
20.10.2020 07:20 3,4 C 3,4 C 91 % 1015,8 hPa 0,0 l/m 0,0 km/h (0 Bft) S 190 0 min 0 W/m 2,1 C 3,4 C 0,0 km/h (0 Bft)
20.10.2020 07:15 3,5 C 3,5 C 91 % 1016,0 hPa 0,0 l/m 0,0 km/h (0 Bft) S 190 0 min 0 W/m 2,2 C 3,5 C 0,0 km/h (0 Bft)
20.10.2020 07:10 3,5 C 3,5 C 91 % 1016,1 hPa 0,0 l/m 0,0 km/h (0 Bft) S 190 0 min 0 W/m 2,2 C 3,5 C 0,0 km/h (0 Bft)
20.10.2020 07:05 3,5 C 3,5 C 90 % 1016,2 hPa 0,0 l/m 0,0 km/h (0 Bft) S-SW 198 0 min 0 W/m 2,0 C 3,5 C 1,6 km/h (1 Bft)
20.10.2020 07:00 3,6 C 3,6 C 90 % 1016,2 hPa 0,0 l/m 0,0 km/h (0 Bft) S-SW 197 0 min 0 W/m 2,1 C 3,6 C 0,0 km/h (0 Bft)
20.10.2020 06:55 3,6 C 3,6 C 90 % 1016,1 hPa 0,0 l/m 0,0 km/h (0 Bft) SO 132 0 min 0 W/m 2,1 C 3,6 C 0,0 km/h (0 Bft)
20.10.2020 06:50 3,6 C 3,6 C 90 % 1016,0 hPa 0,0 l/m 0,0 km/h (0 Bft) SO 132 0 min 0 W/m 2,1 C 3,6 C 0,0 km/h (0 Bft)
20.10.2020 06:45 3,7 C 3,7 C 90 % 1015,9 hPa 0,0 l/m 0,0 km/h (0 Bft) SO 130 0 min 0 W/m 2,2 C 3,7 C 0,0 km/h (0 Bft)
20.10.2020 06:40 3,7 C 3,7 C 90 % 1015,8 hPa 0,0 l/m 0,0 km/h (0 Bft) SO 130 0 min 0 W/m 2,2 C 3,7 C 0,0 km/h (0 Bft)
20.10.2020 06:35 3,8 C 3,8 C 90 % 1015,9 hPa 0,0 l/m 0,0 km/h (0 Bft) SO 130 0 min 0 W/m 2,3 C 3,8 C 0,0 km/h (0 Bft)
20.10.2020 06:30 3,8 C 3,8 C 90 % 1015,9 hPa 0,0 l/m 0,0 km/h (0 Bft) SO 130 0 min 0 W/m 2,3 C 3,8 C 0,0 km/h (0 Bft)
20.10.2020 06:25 3,9 C 3,9 C 90 % 1016,0 hPa 0,0 l/m 0,0 km/h (0 Bft) SO 130 0 min 0 W/m 2,4 C 3,9 C 0,0 km/h (0 Bft)
20.10.2020 06:20 3,9 C 3,9 C 89 % 1016,0 hPa 0,0 l/m 0,0 km/h (0 Bft) SO 130 0 min 0 W/m 2,3 C 3,9 C 0,0 km/h (0 Bft)
20.10.2020 06:15 4,0 C 4,0 C 89 % 1015,9 hPa 0,0 l/m 0,0 km/h (0 Bft) SO 130 0 min 0 W/m 2,4 C 4,0 C 0,0 km/h (0 Bft)
20.10.2020 06:10 4,0 C 4,0 C 89 % 1016,0 hPa 0,0 l/m 0,0 km/h (0 Bft) SO 130 0 min 0 W/m 2,4 C 4,0 C 0,0 km/h (0 Bft)
20.10.2020 06:05 4,1 C 4,1 C 89 % 1015,9 hPa 0,0 l/m 0,0 km/h (0 Bft) SO 130 0 min 0 W/m 2,5 C 4,1 C 0,0 km/h (0 Bft)
20.10.2020 06:00 4,2 C 4,2 C 89 % 1015,9 hPa 0,0 l/m 0,0 km/h (0 Bft) SO 130 0 min 0 W/m 2,6 C 4,2 C 0,0 km/h (0 Bft)
20.10.2020 05:55 4,2 C 4,2 C 89 % 1015,8 hPa 0,0 l/m 0,0 km/h (0 Bft) SO 130 0 min 0 W/m 2,6 C 4,2 C 0,0 km/h (0 Bft)
20.10.2020 05:50 4,3 C 4,3 C 89 % 1015,9 hPa 0,0 l/m 0,0 km/h (0 Bft) SO 130 0 min 0 W/m 2,7 C 4,3 C 0,0 km/h (0 Bft)
20.10.2020 05:45 4,3 C 4,3 C 88 % 1016,0 hPa 0,0 l/m 0,0 km/h (0 Bft) SO 130 0 min 0 W/m 2,5 C 4,3 C 0,0 km/h (0 Bft)
20.10.2020 05:40 4,4 C 4,4 C 88 % 1016,1 hPa 0,0 l/m 0,0 km/h (0 Bft) SO 130 0 min 0 W/m 2,6 C 4,4 C 0,0 km/h (0 Bft)
20.10.2020 05:35 4,5 C 4,5 C 88 % 1016,1 hPa 0,0 l/m 0,0 km/h (0 Bft) SO 130 0 min 0 W/m 2,7 C 4,5 C 0,0 km/h (0 Bft)
20.10.2020 05:30 4,6 C 4,6 C 88 % 1016,0 hPa 0,0 l/m 0,0 km/h (0 Bft) SO 130 0 min 0 W/m 2,8 C 4,6 C 0,0 km/h (0 Bft)
20.10.2020 05:25 4,7 C 4,7 C 88 % 1016,0 hPa 0,0 l/m 0,0 km/h (0 Bft) SO 130 0 min 0 W/m 2,9 C 4,7 C 0,0 km/h (0 Bft)
20.10.2020 05:20 4,8 C 4,8 C 87 % 1016,0 hPa 0,0 l/m 0,0 km/h (0 Bft) SO 130 0 min 0 W/m 2,8 C 4,8 C 0,0 km/h (0 Bft)
20.10.2020 05:15 4,9 C 4,9 C 87 % 1016,0 hPa 0,0 l/m 0,0 km/h (0 Bft) SO 130 0 min 0 W/m 2,9 C 4,9 C 0,0 km/h (0 Bft)
20.10.2020 05:10 5,1 C 5,1 C 87 % 1016,1 hPa 0,0 l/m 0,0 km/h (0 Bft) SO 130 0 min 0 W/m 3,1 C 5,1 C 0,0 km/h (0 Bft)
20.10.2020 05:05 5,2 C 5,2 C 87 % 1016,1 hPa 0,0 l/m 0,0 km/h (0 Bft) SO 130 0 min 0 W/m 3,2 C 5,2 C 0,0 km/h (0 Bft)
20.10.2020 05:00 5,3 C 5,3 C 87 % 1016,2 hPa 0,0 l/m 0,0 km/h (0 Bft) SO 130 0 min 0 W/m 3,3 C 5,3 C 0,0 km/h (0 Bft)
20.10.2020 04:55 5,5 C 5,5 C 87 % 1016,2 hPa 0,0 l/m 0,0 km/h (0 Bft) SO 130 0 min 0 W/m 3,5 C 5,5 C 0,0 km/h (0 Bft)
20.10.2020 04:50 5,7 C 5,7 C 87 % 1016,2 hPa 0,0 l/m 0,0 km/h (0 Bft) SO 130 0 min 0 W/m 3,7 C 5,7 C 0,0 km/h (0 Bft)
20.10.2020 04:45 5,8 C 5,8 C 86 % 1016,3 hPa 0,0 l/m 0,0 km/h (0 Bft) SO 130 0 min 0 W/m 3,6 C 5,8 C 0,0 km/h (0 Bft)
20.10.2020 04:40 5,9 C 5,9 C 86 % 1016,2 hPa 0,0 l/m 0,0 km/h (0 Bft) SO 131 0 min 0 W/m 3,7 C 5,9 C 0,0 km/h (0 Bft)
20.10.2020 04:35 6,1 C 6,1 C 86 % 1016,3 hPa 0,0 l/m 0,0 km/h (0 Bft) SO 132 0 min 0 W/m 3,9 C 6,1 C 0,0 km/h (0 Bft)
20.10.2020 04:30 6,2 C 6,2 C 86 % 1016,2 hPa 0,0 l/m 0,0 km/h (0 Bft) SO 131 0 min 0 W/m 4,0 C 6,2 C 0,0 km/h (0 Bft)
20.10.2020 04:25 6,3 C 6,3 C 86 % 1016,3 hPa 0,0 l/m 0,0 km/h (0 Bft) SO 131 0 min 0 W/m 4,1 C 6,3 C 0,0 km/h (0 Bft)
20.10.2020 04:20 6,4 C 6,4 C 86 % 1016,3 hPa 0,0 l/m 0,0 km/h (0 Bft) SO 131 0 min 0 W/m 4,2 C 6,4 C 0,0 km/h (0 Bft)
20.10.2020 04:15 6,5 C 6,5 C 86 % 1016,3 hPa 0,0 l/m 0,0 km/h (0 Bft) O-NO 76 0 min 0 W/m 4,3 C 6,5 C 0,0 km/h (0 Bft)
20.10.2020 04:10 6,6 C 6,6 C 86 % 1016,3 hPa 0,0 l/m 0,0 km/h (0 Bft) O-NO 76 0 min 0 W/m 4,4 C 6,6 C 0,0 km/h (0 Bft)
20.10.2020 04:05 6,6 C 6,6 C 86 % 1016,3 hPa 0,0 l/m 0,0 km/h (0 Bft) O-NO 77 0 min 0 W/m 4,4 C 6,6 C 0,0 km/h (0 Bft)
20.10.2020 04:00 6,6 C 6,6 C 86 % 1016,4 hPa 0,0 l/m 0,0 km/h (0 Bft) SO 140 0 min 0 W/m 4,4 C 6,6 C 0,0 km/h (0 Bft)
20.10.2020 03:55 6,6 C 6,6 C 85 % 1016,4 hPa 0,0 l/m 0,0 km/h (0 Bft) O 82 0 min 0 W/m 4,3 C 6,6 C 0,0 km/h (0 Bft)
20.10.2020 03:50 6,7 C 6,7 C 85 % 1016,4 hPa 0,0 l/m 0,0 km/h (0 Bft) O 94 0 min 0 W/m 4,4 C 6,7 C 0,0 km/h (0 Bft)
20.10.2020 03:45 6,8 C 6,8 C 85 % 1016,4 hPa 0,0 l/m 0,0 km/h (0 Bft) SO 132 0 min 0 W/m 4,5 C 6,8 C 0,0 km/h (0 Bft)
20.10.2020 03:40 6,9 C 6,9 C 85 % 1016,6 hPa 0,0 l/m 0,0 km/h (0 Bft) SO 145 0 min 0 W/m 4,6 C 6,9 C 0,0 km/h (0 Bft)
20.10.2020 03:35 6,9 C 6,9 C 85 % 1016,7 hPa 0,0 l/m 0,0 km/h (0 Bft) SO 144 0 min 0 W/m 4,6 C 6,9 C 0,0 km/h (0 Bft)
20.10.2020 03:30 7,0 C 7,0 C 84 % 1016,8 hPa 0,0 l/m 0,0 km/h (0 Bft) O-NO 69 0 min 0 W/m 4,5 C 7,0 C 0,0 km/h (0 Bft)
20.10.2020 03:25 7,1 C 7,1 C 84 % 1016,8 hPa 0,0 l/m 0,0 km/h (0 Bft) O-NO 69 0 min 0 W/m 4,6 C 7,1 C 0,0 km/h (0 Bft)
20.10.2020 03:20 7,1 C 7,1 C 84 % 1016,8 hPa 0,0 l/m 0,0 km/h (0 Bft) S-SO 154 0 min 0 W/m 4,6 C 7,1 C 0,0 km/h (0 Bft)
20.10.2020 03:15 7,2 C 7,2 C 84 % 1017,0 hPa 0,0 l/m 0,0 km/h (0 Bft) SO 135 0 min 0 W/m 4,7 C 7,2 C 0,0 km/h (0 Bft)
20.10.2020 03:10 7,2 C 7,2 C 84 % 1017,1 hPa 0,0 l/m 0,0 km/h (0 Bft) O-NO 75 0 min 0 W/m 4,7 C 7,2 C 0,0 km/h (0 Bft)
20.10.2020 03:05 7,2 C 7,2 C 84 % 1017,2 hPa 0,0 l/m 0,0 km/h (0 Bft) O 98 0 min 0 W/m 4,7 C 7,2 C 0,0 km/h (0 Bft)
20.10.2020 03:00 7,3 C 7,3 C 84 % 1017,2 hPa 0,0 l/m 0,0 km/h (0 Bft) SO 125 0 min 0 W/m 4,8 C 7,3 C 0,0 km/h (0 Bft)
20.10.2020 02:55 7,3 C 7,3 C 83 % 1017,1 hPa 0,0 l/m 0,0 km/h (0 Bft) N 9 0 min 0 W/m 4,6 C 7,3 C 0,0 km/h (0 Bft)
20.10.2020 02:50 7,4 C 7,4 C 83 % 1017,1 hPa 0,0 l/m 0,0 km/h (0 Bft) SO 129 0 min 0 W/m 4,7 C 7,4 C 0,0 km/h (0 Bft)
20.10.2020 02:45 7,5 C 7,5 C 82 % 1017,2 hPa 0,0 l/m 0,0 km/h (0 Bft) O-SO 111 0 min 0 W/m 4,6 C 7,5 C 0,0 km/h (0 Bft)
20.10.2020 02:40 7,6 C 7,6 C 82 % 1017,2 hPa 0,0 l/m 0,0 km/h (0 Bft) SO 131 0 min 0 W/m 4,7 C 7,6 C 0,0 km/h (0 Bft)
20.10.2020 02:35 7,7 C 7,7 C 82 % 1017,3 hPa 0,0 l/m 0,0 km/h (0 Bft) O-SO 115 0 min 0 W/m 4,8 C 7,7 C 0,0 km/h (0 Bft)
20.10.2020 02:30 7,8 C 7,8 C 82 % 1017,2 hPa 0,0 l/m 0,0 km/h (0 Bft) S 182 0 min 0 W/m 4,9 C 7,8 C 0,0 km/h (0 Bft)
20.10.2020 02:25 7,9 C 7,9 C 82 % 1017,2 hPa 0,0 l/m 0,0 km/h (0 Bft) SW 217 0 min 0 W/m 5,0 C 7,9 C 0,0 km/h (0 Bft)
20.10.2020 02:20 7,9 C 7,9 C 82 % 1017,3 hPa 0,0 l/m 0,0 km/h (0 Bft) S-SW 196 0 min 0 W/m 5,0 C 7,9 C 0,0 km/h (0 Bft)
20.10.2020 02:15 8,0 C 8,0 C 82 % 1017,3 hPa 0,0 l/m 0,0 km/h (0 Bft) S-SW 202 0 min 0 W/m 5,1 C 8,0 C 0,0 km/h (0 Bft)
20.10.2020 02:10 8,0 C 8,0 C 82 % 1017,3 hPa 0,0 l/m 0,0 km/h (0 Bft) S-SW 212 0 min 0 W/m 5,1 C 8,0 C 0,0 km/h (0 Bft)
20.10.2020 02:05 8,0 C 8,0 C 82 % 1017,3 hPa 0,0 l/m 0,1 km/h (0 Bft) S-SO 153 0 min 0 W/m 5,1 C 8,0 C 3,2 km/h (1 Bft)
20.10.2020 02:00 8,0 C 7,9 C 82 % 1017,2 hPa 0,0 l/m 0,0 km/h (0 Bft) S-SW 196 0 min 0 W/m 5,1 C 8,0 C 1,6 km/h (1 Bft)
20.10.2020 01:55 7,9 C 7,9 C 81 % 1017,2 hPa 0,0 l/m 0,0 km/h (0 Bft) SW 232 0 min 0 W/m 4,8 C 7,9 C 1,6 km/h (1 Bft)
20.10.2020 01:50 8,0 C 8,0 C 81 % 1017,3 hPa 0,0 l/m 0,0 km/h (0 Bft) S-SO 163 0 min 0 W/m 4,9 C 8,0 C 0,0 km/h (0 Bft)
20.10.2020 01:45 8,1 C 8,1 C 81 % 1017,3 hPa 0,0 l/m 0,0 km/h (0 Bft) SO 138 0 min 0 W/m 5,0 C 8,1 C 0,0 km/h (0 Bft)
20.10.2020 01:40 8,1 C 8,1 C 81 % 1017,4 hPa 0,0 l/m 0,0 km/h (0 Bft) S-SO 160 0 min 0 W/m 5,0 C 8,1 C 0,0 km/h (0 Bft)
20.10.2020 01:35 8,1 C 8,1 C 81 % 1017,4 hPa 0,0 l/m 0,0 km/h (0 Bft) S 178 0 min 0 W/m 5,0 C 8,1 C 0,0 km/h (0 Bft)
20.10.2020 01:30 8,2 C 8,2 C 81 % 1017,4 hPa 0,0 l/m 0,0 km/h (0 Bft) S-SO 159 0 min 0 W/m 5,1 C 8,2 C 0,0 km/h (0 Bft)
20.10.2020 01:25 8,2 C 8,2 C 80 % 1017,3 hPa 0,0 l/m 0,8 km/h (0 Bft) S 187 0 min 0 W/m 5,0 C 8,2 C 16,1 km/h (3 Bft)
20.10.2020 01:20 8,2 C 8,2 C 80 % 1017,2 hPa 0,0 l/m 3,7 km/h (1 Bft) SO 132 0 min 0 W/m 5,0 C 8,2 C 17,7 km/h (3 Bft)
20.10.2020 01:15 8,2 C 8,2 C 80 % 1017,3 hPa 0,0 l/m 2,9 km/h (1 Bft) S-SW 200 0 min 0 W/m 5,0 C 8,2 C 17,7 km/h (3 Bft)
20.10.2020 01:10 8,2 C 8,2 C 80 % 1017,4 hPa 0,0 l/m 4,3 km/h (1 Bft) O 79 0 min 0 W/m 5,0 C 8,2 C 17,7 km/h (3 Bft)
20.10.2020 01:05 8,2 C 8,1 C 80 % 1017,5 hPa 0,0 l/m 5,3 km/h (1 Bft) S 175 0 min 0 W/m 5,0 C 7,6 C 22,5 km/h (4 Bft)
20.10.2020 01:00 8,1 C 8,1 C 80 % 1017,6 hPa 0,0 l/m 2,1 km/h (1 Bft) O-NO 67 0 min 0 W/m 4,9 C 8,1 C 17,7 km/h (3 Bft)
20.10.2020 00:55 8,1 C 8,1 C 80 % 1017,6 hPa 0,0 l/m 0,6 km/h (0 Bft) O 90 0 min 0 W/m 4,9 C 8,1 C 8,0 km/h (2 Bft)
20.10.2020 00:50 8,1 C 8,1 C 80 % 1017,6 hPa 0,0 l/m 5,7 km/h (1 Bft) O-SO 113 0 min 0 W/m 4,9 C 7,4 C 16,1 km/h (3 Bft)
20.10.2020 00:45 8,1 C 8,1 C 80 % 1017,8 hPa 0,0 l/m 5,5 km/h (1 Bft) SO 136 0 min 0 W/m 4,9 C 7,4 C 14,5 km/h (3 Bft)
20.10.2020 00:40 8,1 C 8,0 C 80 % 1017,8 hPa 0,0 l/m 2,0 km/h (1 Bft) S-SO 167 0 min 0 W/m 4,9 C 8,1 C 14,5 km/h (3 Bft)
20.10.2020 00:35 8,0 C 7,9 C 80 % 1017,8 hPa 0,0 l/m 1,5 km/h (1 Bft) O-SO 119 0 min 0 W/m 4,8 C 8,0 C 9,7 km/h (2 Bft)
20.10.2020 00:30 7,9 C 7,8 C 80 % 1017,9 hPa 0,0 l/m 5,5 km/h (1 Bft) O 86 0 min 0 W/m 4,7 C 7,2 C 20,9 km/h (4 Bft)
20.10.2020 00:25 7,8 C 7,8 C 81 % 1018,0 hPa 0,0 l/m 3,9 km/h (1 Bft) O-SO 121 0 min 0 W/m 4,7 C 7,8 C 12,9 km/h (3 Bft)
20.10.2020 00:20 7,8 C 7,7 C 81 % 1018,1 hPa 0,0 l/m 0,2 km/h (0 Bft) O-SO 115 0 min 0 W/m 4,7 C 7,8 C 6,4 km/h (2 Bft)
20.10.2020 00:15 7,7 C 7,6 C 81 % 1018,1 hPa 0,0 l/m 1,0 km/h (0 Bft) O-NO 76 0 min 0 W/m 4,7 C 7,7 C 12,9 km/h (3 Bft)
20.10.2020 00:10 7,6 C 7,5 C 81 % 1018,2 hPa 0,0 l/m 3,4 km/h (1 Bft) O-SO 103 0 min 0 W/m 4,6 C 7,6 C 14,5 km/h (3 Bft)
20.10.2020 00:05 7,5 C 7,4 C 82 % 1018,2 hPa 0,0 l/m 4,5 km/h (1 Bft) S-SO 154 0 min 0 W/m 4,6 C 7,5 C 16,1 km/h (3 Bft)
20.10.2020 00:00 7,4 C 7,4 C 82 % 1018,3 hPa 0,0 l/m 4,0 km/h (1 Bft) SO 134 0 min 0 W/m 4,5 C 7,4 C 11,3 km/h (2 Bft)
_ Min-Zeit 08:00 08:00 13:45 14:55 - 01:30 - - - - 08:00 08:00 01:30
Minimum _ 3,1 C 3,1 C 68 % 1013,3 hPa - 0,0 km/h (0 Bft) - - - - 1,8 C 3,1 C 0,0 km/h (0 Bft)
_ Max-Zeit 15:00 15:05 09:50 00:00 00:00 00:50 - - 00:00 00:00 14:30 15:00 01:05
Maximum _ 15,4 C 15,4 C 94 % 1018,3 hPa 0,0 l/m 5,7 km/h
O-SO (1 Bft)
- - 0 min 0 W/m 10,1 C 15,4 C 22,5 km/h
O-SO (4 Bft)
Durchschnitt _ 7,6 C 7,6 C 84 % 1015,9 hPa #0,0 l/m 0,6 km/h (0 Bft) O-SO - #0 min. 0 W/m 5,0 C 7,6 C 3,1 km/h (1 Bft)